Terminal Aerodrome Forecast
Issued by NWS

Home | Current Version | Previous Version | Text Only | Print | Product List | Glossary On
Versions: 1 2 3 4 5 6 7 8 9 10 11 12 13 14 15 16 17 18
000
FTUS46 KHNX 180521
TAFVIS
TAF
KVIS 180521Z 1806/1906 13003KT 5SM BR BKN060
     FM181300 VRB03KT 3SM BR BKN050
      TEMPO 1813/1816 1SM BR OVC030
     FM181900 16005KT 5SM HZ BR BKN050
     FM190100 VRB03KT 3SM HZ BR BKN250=

USA.gov is the U.S. government's official web portal to all federal, state and local government web resources and services.